sensor_id;sensor_type;location;lat;lon;timestamp;P1;durP1;ratioP1;P2;durP2;ratioP2
16354;SDS011;8287;51.644;8.494;2023-08-30T00:01:08;3.40;;;3.08;;
16354;SDS011;8287;51.644;8.494;2023-08-30T00:03:35;2.95;;;2.47;;
16354;SDS011;8287;51.644;8.494;2023-08-30T00:06:02;3.60;;;2.80;;
16354;SDS011;8287;51.644;8.494;2023-08-30T00:08:29;2.72;;;2.40;;
16354;SDS011;8287;51.644;8.494;2023-08-30T00:10:57;2.97;;;2.40;;
16354;SDS011;8287;51.644;8.494;2023-08-30T00:13:24;6.53;;;2.78;;
16354;SDS011;8287;51.644;8.494;2023-08-30T00:15:51;3.13;;;2.28;;
16354;SDS011;8287;51.644;8.494;2023-08-30T00:18:18;3.33;;;2.78;;
16354;SDS011;8287;51.644;8.494;2023-08-30T00:20:45;3.90;;;3.13;;
16354;SDS011;8287;51.644;8.494;2023-08-30T00:23:11;4.47;;;3.30;;
16354;SDS011;8287;51.644;8.494;2023-08-30T00:25:38;3.78;;;3.30;;
16354;SDS011;8287;51.644;8.494;2023-08-30T00:28:06;3.25;;;2.95;;
16354;SDS011;8287;51.644;8.494;2023-08-30T00:30:33;4.43;;;3.10;;
16354;SDS011;8287;51.644;8.494;2023-08-30T00:33:00;2.70;;;2.50;;
16354;SDS011;8287;51.644;8.494;2023-08-30T00:35:26;3.08;;;2.63;;
16354;SDS011;8287;51.644;8.494;2023-08-30T00:37:53;4.18;;;3.30;;
16354;SDS011;8287;51.644;8.494;2023-08-30T00:40:22;4.80;;;3.22;;
16354;SDS011;8287;51.644;8.494;2023-08-30T00:42:49;3.55;;;2.78;;
16354;SDS011;8287;51.644;8.494;2023-08-30T00:45:17;4.13;;;2.90;;
16354;SDS011;8287;51.644;8.494;2023-08-30T00:47:43;2.90;;;2.67;;
16354;SDS011;8287;51.644;8.494;2023-08-30T00:50:10;2.90;;;2.70;;
16354;SDS011;8287;51.644;8.494;2023-08-30T00:52:38;4.05;;;2.78;;
16354;SDS011;8287;51.644;8.494;2023-08-30T00:55:05;3.03;;;2.80;;
16354;SDS011;8287;51.644;8.494;2023-08-30T00:57:33;3.45;;;3.15;;
16354;SDS011;8287;51.644;8.494;2023-08-30T01:00:00;3.38;;;3.08;;
16354;SDS011;8287;51.644;8.494;2023-08-30T01:02:29;3.50;;;3.20;;
16354;SDS011;8287;51.644;8.494;2023-08-30T01:04:56;4.10;;;3.50;;
16354;SDS011;8287;51.644;8.494;2023-08-30T01:07:24;4.78;;;4.38;;
16354;SDS011;8287;51.644;8.494;2023-08-30T01:09:52;5.43;;;3.80;;
16354;SDS011;8287;51.644;8.494;2023-08-30T01:12:20;4.03;;;3.70;;
16354;SDS011;8287;51.644;8.494;2023-08-30T01:14:52;4.15;;;3.63;;
16354;SDS011;8287;51.644;8.494;2023-08-30T01:17:22;4.25;;;3.85;;
16354;SDS011;8287;51.644;8.494;2023-08-30T01:19:53;4.38;;;3.42;;
16354;SDS011;8287;51.644;8.494;2023-08-30T01:22:29;4.95;;;4.13;;
16354;SDS011;8287;51.644;8.494;2023-08-30T01:25:09;4.90;;;4.38;;
16354;SDS011;8287;51.644;8.494;2023-08-30T01:27:45;4.60;;;4.20;;
16354;SDS011;8287;51.644;8.494;2023-08-30T01:30:14;4.35;;;3.95;;
16354;SDS011;8287;51.644;8.494;2023-08-30T01:32:42;5.55;;;4.47;;
16354;SDS011;8287;51.644;8.494;2023-08-30T01:35:09;4.95;;;4.28;;
16354;SDS011;8287;51.644;8.494;2023-08-30T01:37:36;4.15;;;3.75;;
16354;SDS011;8287;51.644;8.494;2023-08-30T01:40:05;5.95;;;5.35;;
16354;SDS011;8287;51.644;8.494;2023-08-30T01:42:33;5.07;;;4.63;;
16354;SDS011;8287;51.644;8.494;2023-08-30T01:45:04;5.07;;;4.57;;
16354;SDS011;8287;51.644;8.494;2023-08-30T01:47:33;4.88;;;4.45;;
16354;SDS011;8287;51.644;8.494;2023-08-30T01:50:02;5.90;;;4.82;;
16354;SDS011;8287;51.644;8.494;2023-08-30T01:52:29;6.47;;;4.85;;
16354;SDS011;8287;51.644;8.494;2023-08-30T01:54:58;5.75;;;5.15;;
16354;SDS011;8287;51.644;8.494;2023-08-30T01:57:26;5.20;;;4.70;;
16354;SDS011;8287;51.644;8.494;2023-08-30T01:59:52;6.15;;;5.07;;
16354;SDS011;8287;51.644;8.494;2023-08-30T02:02:20;4.97;;;4.47;;
16354;SDS011;8287;51.644;8.494;2023-08-30T02:04:47;5.78;;;4.72;;
16354;SDS011;8287;51.644;8.494;2023-08-30T02:07:16;5.78;;;4.95;;
16354;SDS011;8287;51.644;8.494;2023-08-30T02:09:48;4.72;;;4.03;;
16354;SDS011;8287;51.644;8.494;2023-08-30T02:12:17;5.90;;;4.70;;
16354;SDS011;8287;51.644;8.494;2023-08-30T02:14:47;5.32;;;4.82;;
16354;SDS011;8287;51.644;8.494;2023-08-30T02:17:15;5.05;;;4.55;;
16354;SDS011;8287;51.644;8.494;2023-08-30T02:19:44;5.45;;;4.78;;
16354;SDS011;8287;51.644;8.494;2023-08-30T02:22:12;5.18;;;4.68;;
16354;SDS011;8287;51.644;8.494;2023-08-30T02:24:38;8.15;;;5.60;;
16354;SDS011;8287;51.644;8.494;2023-08-30T02:27:05;5.55;;;4.97;;
16354;SDS011;8287;51.644;8.494;2023-08-30T02:29:31;5.57;;;5.07;;
16354;SDS011;8287;51.644;8.494;2023-08-30T02:31:58;6.95;;;4.75;;
16354;SDS011;8287;51.644;8.494;2023-08-30T02:34:25;6.50;;;5.88;;
16354;SDS011;8287;51.644;8.494;2023-08-30T02:36:54;7.05;;;4.95;;
16354;SDS011;8287;51.644;8.494;2023-08-30T02:39:21;4.82;;;4.43;;
16354;SDS011;8287;51.644;8.494;2023-08-30T02:41:47;6.20;;;4.88;;
16354;SDS011;8287;51.644;8.494;2023-08-30T02:44:14;7.65;;;5.75;;
16354;SDS011;8287;51.644;8.494;2023-08-30T02:46:40;5.80;;;5.28;;
16354;SDS011;8287;51.644;8.494;2023-08-30T02:49:07;5.72;;;4.97;;
16354;SDS011;8287;51.644;8.494;2023-08-30T02:51:34;6.28;;;5.28;;
16354;SDS011;8287;51.644;8.494;2023-08-30T02:54:02;5.43;;;4.78;;
16354;SDS011;8287;51.644;8.494;2023-08-30T02:56:29;6.18;;;5.45;;
16354;SDS011;8287;51.644;8.494;2023-08-30T02:58:58;7.18;;;5.55;;
16354;SDS011;8287;51.644;8.494;2023-08-30T03:01:24;8.88;;;5.78;;
16354;SDS011;8287;51.644;8.494;2023-08-30T03:03:51;6.22;;;5.63;;
16354;SDS011;8287;51.644;8.494;2023-08-30T03:06:17;5.82;;;5.30;;
16354;SDS011;8287;51.644;8.494;2023-08-30T03:08:44;5.55;;;5.05;;
16354;SDS011;8287;51.644;8.494;2023-08-30T03:11:12;6.10;;;5.50;;
16354;SDS011;8287;51.644;8.494;2023-08-30T03:13:39;7.65;;;5.05;;
16354;SDS011;8287;51.644;8.494;2023-08-30T03:16:10;6.20;;;5.07;;
16354;SDS011;8287;51.644;8.494;2023-08-30T03:18:37;5.07;;;4.57;;
16354;SDS011;8287;51.644;8.494;2023-08-30T03:21:04;5.32;;;4.57;;
16354;SDS011;8287;51.644;8.494;2023-08-30T03:23:30;5.97;;;5.05;;
16354;SDS011;8287;51.644;8.494;2023-08-30T03:25:57;5.68;;;4.80;;
16354;SDS011;8287;51.644;8.494;2023-08-30T03:28:25;6.60;;;5.35;;
16354;SDS011;8287;51.644;8.494;2023-08-30T03:30:53;6.07;;;5.47;;
16354;SDS011;8287;51.644;8.494;2023-08-30T03:33:19;6.25;;;5.63;;
16354;SDS011;8287;51.644;8.494;2023-08-30T03:35:46;7.05;;;5.35;;
16354;SDS011;8287;51.644;8.494;2023-08-30T03:38:12;6.57;;;5.70;;
16354;SDS011;8287;51.644;8.494;2023-08-30T03:40:39;6.57;;;5.97;;
16354;SDS011;8287;51.644;8.494;2023-08-30T03:43:05;5.75;;;5.10;;
16354;SDS011;8287;51.644;8.494;2023-08-30T03:45:35;5.93;;;5.32;;
16354;SDS011;8287;51.644;8.494;2023-08-30T03:48:02;5.80;;;5.30;;
16354;SDS011;8287;51.644;8.494;2023-08-30T03:50:29;6.13;;;5.53;;
16354;SDS011;8287;51.644;8.494;2023-08-30T03:52:56;6.47;;;5.57;;
16354;SDS011;8287;51.644;8.494;2023-08-30T03:55:22;6.50;;;5.90;;
16354;SDS011;8287;51.644;8.494;2023-08-30T03:57:49;8.02;;;6.90;;
16354;SDS011;8287;51.644;8.494;2023-08-30T04:00:16;7.47;;;6.72;;
16354;SDS011;8287;51.644;8.494;2023-08-30T04:02:44;7.85;;;5.82;;
16354;SDS011;8287;51.644;8.494;2023-08-30T04:05:10;8.05;;;6.38;;
16354;SDS011;8287;51.644;8.494;2023-08-30T04:07:37;7.43;;;6.25;;
16354;SDS011;8287;51.644;8.494;2023-08-30T04:10:04;7.93;;;6.40;;
16354;SDS011;8287;51.644;8.494;2023-08-30T04:12:32;6.65;;;6.05;;
16354;SDS011;8287;51.644;8.494;2023-08-30T04:14:59;6.80;;;6.10;;
16354;SDS011;8287;51.644;8.494;2023-08-30T04:17:26;7.68;;;6.88;;
16354;SDS011;8287;51.644;8.494;2023-08-30T04:19:54;8.32;;;7.03;;
16354;SDS011;8287;51.644;8.494;2023-08-30T04:22:21;6.18;;;5.57;;
16354;SDS011;8287;51.644;8.494;2023-08-30T04:24:48;7.25;;;6.00;;
16354;SDS011;8287;51.644;8.494;2023-08-30T04:27:15;6.63;;;5.93;;
16354;SDS011;8287;51.644;8.494;2023-08-30T04:29:41;7.10;;;6.18;;
16354;SDS011;8287;51.644;8.494;2023-08-30T04:32:10;7.65;;;6.45;;
16354;SDS011;8287;51.644;8.494;2023-08-30T04:34:36;7.85;;;7.07;;
16354;SDS011;8287;51.644;8.494;2023-08-30T04:37:04;7.43;;;5.97;;
16354;SDS011;8287;51.644;8.494;2023-08-30T04:39:31;8.18;;;6.30;;
16354;SDS011;8287;51.644;8.494;2023-08-30T04:41:58;10.80;;;7.65;;
16354;SDS011;8287;51.644;8.494;2023-08-30T04:44:24;7.55;;;6.75;;
16354;SDS011;8287;51.644;8.494;2023-08-30T04:46:52;6.88;;;6.18;;
16354;SDS011;8287;51.644;8.494;2023-08-30T04:49:20;9.93;;;7.03;;
16354;SDS011;8287;51.644;8.494;2023-08-30T04:51:46;7.85;;;6.75;;
16354;SDS011;8287;51.644;8.494;2023-08-30T04:54:14;9.07;;;8.07;;
16354;SDS011;8287;51.644;8.494;2023-08-30T04:56:41;8.60;;;5.90;;
16354;SDS011;8287;51.644;8.494;2023-08-30T04:59:08;10.20;;;6.90;;
16354;SDS011;8287;51.644;8.494;2023-08-30T05:01:35;8.75;;;7.03;;
16354;SDS011;8287;51.644;8.494;2023-08-30T05:04:03;8.32;;;6.97;;
16354;SDS011;8287;51.644;8.494;2023-08-30T05:06:30;7.45;;;6.72;;
16354;SDS011;8287;51.644;8.494;2023-08-30T05:08:57;7.65;;;6.78;;
16354;SDS011;8287;51.644;8.494;2023-08-30T05:11:25;7.93;;;5.95;;
16354;SDS011;8287;51.644;8.494;2023-08-30T05:13:52;7.15;;;6.10;;
16354;SDS011;8287;51.644;8.494;2023-08-30T05:16:24;7.63;;;6.47;;
16354;SDS011;8287;51.644;8.494;2023-08-30T05:18:51;7.65;;;6.78;;
16354;SDS011;8287;51.644;8.494;2023-08-30T05:21:18;9.50;;;7.35;;
16354;SDS011;8287;51.644;8.494;2023-08-30T05:23:45;9.80;;;6.80;;
16354;SDS011;8287;51.644;8.494;2023-08-30T05:26:12;9.35;;;6.70;;
16354;SDS011;8287;51.644;8.494;2023-08-30T05:28:39;8.75;;;7.85;;
16354;SDS011;8287;51.644;8.494;2023-08-30T05:31:06;9.18;;;7.80;;
16354;SDS011;8287;51.644;8.494;2023-08-30T05:33:33;11.68;;;7.30;;
16354;SDS011;8287;51.644;8.494;2023-08-30T05:36:00;8.68;;;7.55;;
16354;SDS011;8287;51.644;8.494;2023-08-30T05:38:27;10.80;;;7.28;;
16354;SDS011;8287;51.644;8.494;2023-08-30T05:40:54;10.48;;;7.22;;
16354;SDS011;8287;51.644;8.494;2023-08-30T05:43:20;8.07;;;6.93;;
16354;SDS011;8287;51.644;8.494;2023-08-30T05:45:47;7.63;;;6.93;;
16354;SDS011;8287;51.644;8.494;2023-08-30T05:48:14;10.13;;;7.60;;
16354;SDS011;8287;51.644;8.494;2023-08-30T05:50:40;8.48;;;6.95;;
16354;SDS011;8287;51.644;8.494;2023-08-30T05:53:07;7.75;;;6.97;;
16354;SDS011;8287;51.644;8.494;2023-08-30T05:55:34;7.85;;;7.10;;
16354;SDS011;8287;51.644;8.494;2023-08-30T05:58:00;8.00;;;7.22;;
16354;SDS011;8287;51.644;8.494;2023-08-30T06:00:27;7.65;;;6.85;;
16354;SDS011;8287;51.644;8.494;2023-08-30T06:02:55;8.10;;;7.25;;
16354;SDS011;8287;51.644;8.494;2023-08-30T06:05:21;11.98;;;7.72;;
16354;SDS011;8287;51.644;8.494;2023-08-30T06:07:48;9.20;;;7.70;;
16354;SDS011;8287;51.644;8.494;2023-08-30T06:10:16;12.60;;;7.90;;
16354;SDS011;8287;51.644;8.494;2023-08-30T06:12:43;9.23;;;8.23;;
16354;SDS011;8287;51.644;8.494;2023-08-30T06:15:09;14.57;;;8.48;;
16354;SDS011;8287;51.644;8.494;2023-08-30T06:17:36;10.77;;;8.55;;
16354;SDS011;8287;51.644;8.494;2023-08-30T06:20:05;8.20;;;7.32;;
16354;SDS011;8287;51.644;8.494;2023-08-30T06:22:32;9.57;;;8.05;;
16354;SDS011;8287;51.644;8.494;2023-08-30T06:24:59;8.98;;;8.07;;
16354;SDS011;8287;51.644;8.494;2023-08-30T06:27:25;9.65;;;8.63;;
16354;SDS011;8287;51.644;8.494;2023-08-30T06:29:52;11.13;;;9.13;;
16354;SDS011;8287;51.644;8.494;2023-08-30T06:32:18;11.10;;;8.57;;
16354;SDS011;8287;51.644;8.494;2023-08-30T06:34:45;9.10;;;8.20;;
16354;SDS011;8287;51.644;8.494;2023-08-30T06:37:13;11.35;;;10.13;;
16354;SDS011;8287;51.644;8.494;2023-08-30T06:39:40;11.48;;;9.20;;
16354;SDS011;8287;51.644;8.494;2023-08-30T06:42:07;10.45;;;9.18;;
16354;SDS011;8287;51.644;8.494;2023-08-30T06:44:33;14.07;;;11.23;;
16354;SDS011;8287;51.644;8.494;2023-08-30T06:47:00;13.13;;;10.18;;
16354;SDS011;8287;51.644;8.494;2023-08-30T06:49:26;12.07;;;9.98;;
16354;SDS011;8287;51.644;8.494;2023-08-30T06:51:53;11.80;;;10.57;;
16354;SDS011;8287;51.644;8.494;2023-08-30T06:54:21;13.95;;;10.05;;
16354;SDS011;8287;51.644;8.494;2023-08-30T06:56:56;14.07;;;11.13;;
16354;SDS011;8287;51.644;8.494;2023-08-30T06:59:23;16.00;;;11.52;;
16354;SDS011;8287;51.644;8.494;2023-08-30T07:01:50;12.90;;;10.13;;
16354;SDS011;8287;51.644;8.494;2023-08-30T07:04:17;13.95;;;11.00;;
16354;SDS011;8287;51.644;8.494;2023-08-30T07:06:43;12.88;;;9.90;;
16354;SDS011;8287;51.644;8.494;2023-08-30T07:09:10;19.67;;;13.23;;
16354;SDS011;8287;51.644;8.494;2023-08-30T07:11:38;14.52;;;11.65;;
16354;SDS011;8287;51.644;8.494;2023-08-30T07:14:05;13.15;;;10.75;;
16354;SDS011;8287;51.644;8.494;2023-08-30T07:16:31;13.18;;;10.38;;
16354;SDS011;8287;51.644;8.494;2023-08-30T07:18:58;12.55;;;10.48;;
16354;SDS011;8287;51.644;8.494;2023-08-30T07:21:26;14.95;;;11.18;;
16354;SDS011;8287;51.644;8.494;2023-08-30T07:23:53;13.77;;;11.77;;
16354;SDS011;8287;51.644;8.494;2023-08-30T07:26:19;12.38;;;11.10;;
16354;SDS011;8287;51.644;8.494;2023-08-30T07:28:47;16.58;;;12.02;;
16354;SDS011;8287;51.644;8.494;2023-08-30T07:31:14;14.60;;;11.38;;
16354;SDS011;8287;51.644;8.494;2023-08-30T07:33:43;13.45;;;11.57;;
16354;SDS011;8287;51.644;8.494;2023-08-30T07:36:10;10.63;;;9.50;;
16354;SDS011;8287;51.644;8.494;2023-08-30T07:38:36;10.68;;;9.50;;
16354;SDS011;8287;51.644;8.494;2023-08-30T07:41:03;11.98;;;10.77;;
16354;SDS011;8287;51.644;8.494;2023-08-30T07:43:30;12.27;;;10.98;;
16354;SDS011;8287;51.644;8.494;2023-08-30T07:45:58;12.93;;;10.13;;
16354;SDS011;8287;51.644;8.494;2023-08-30T07:48:24;13.60;;;10.95;;
16354;SDS011;8287;51.644;8.494;2023-08-30T07:50:51;12.18;;;9.98;;
16354;SDS011;8287;51.644;8.494;2023-08-30T07:53:18;11.63;;;10.02;;
16354;SDS011;8287;51.644;8.494;2023-08-30T07:55:47;14.18;;;9.63;;
16354;SDS011;8287;51.644;8.494;2023-08-30T07:58:14;12.23;;;10.90;;
16354;SDS011;8287;51.644;8.494;2023-08-30T08:00:41;10.70;;;8.73;;
16354;SDS011;8287;51.644;8.494;2023-08-30T08:03:09;11.07;;;8.18;;
16354;SDS011;8287;51.644;8.494;2023-08-30T08:05:35;13.65;;;9.45;;
16354;SDS011;8287;51.644;8.494;2023-08-30T08:08:02;10.75;;;8.20;;
16354;SDS011;8287;51.644;8.494;2023-08-30T08:10:31;9.65;;;8.10;;
16354;SDS011;8287;51.644;8.494;2023-08-30T08:12:58;8.10;;;7.00;;
16354;SDS011;8287;51.644;8.494;2023-08-30T08:15:24;11.88;;;8.63;;
16354;SDS011;8287;51.644;8.494;2023-08-30T08:17:51;11.68;;;8.38;;
16354;SDS011;8287;51.644;8.494;2023-08-30T08:20:19;8.73;;;6.95;;
16354;SDS011;8287;51.644;8.494;2023-08-30T08:22:45;8.48;;;7.63;;
16354;SDS011;8287;51.644;8.494;2023-08-30T08:25:12;8.38;;;6.95;;
16354;SDS011;8287;51.644;8.494;2023-08-30T08:27:39;6.78;;;6.00;;
16354;SDS011;8287;51.644;8.494;2023-08-30T08:30:06;10.73;;;7.63;;
16354;SDS011;8287;51.644;8.494;2023-08-30T08:32:34;7.45;;;6.70;;
16354;SDS011;8287;51.644;8.494;2023-08-30T08:35:01;9.00;;;7.13;;
16354;SDS011;8287;51.644;8.494;2023-08-30T08:37:29;7.70;;;6.03;;
16354;SDS011;8287;51.644;8.494;2023-08-30T08:39:56;6.40;;;4.90;;
16354;SDS011;8287;51.644;8.494;2023-08-30T08:42:22;9.60;;;5.25;;
16354;SDS011;8287;51.644;8.494;2023-08-30T08:44:50;7.00;;;5.85;;
16354;SDS011;8287;51.644;8.494;2023-08-30T08:47:18;7.18;;;5.47;;
16354;SDS011;8287;51.644;8.494;2023-08-30T08:49:46;8.18;;;5.47;;
16354;SDS011;8287;51.644;8.494;2023-08-30T08:52:13;6.10;;;5.47;;
16354;SDS011;8287;51.644;8.494;2023-08-30T08:54:41;9.00;;;5.22;;
16354;SDS011;8287;51.644;8.494;2023-08-30T08:57:09;5.10;;;4.32;;
16354;SDS011;8287;51.644;8.494;2023-08-30T08:59:36;7.50;;;5.45;;
16354;SDS011;8287;51.644;8.494;2023-08-30T09:02:03;5.15;;;4.60;;
16354;SDS011;8287;51.644;8.494;2023-08-30T09:04:30;5.38;;;4.50;;
16354;SDS011;8287;51.644;8.494;2023-08-30T09:06:57;8.45;;;3.70;;
16354;SDS011;8287;51.644;8.494;2023-08-30T09:09:24;4.80;;;3.63;;
16354;SDS011;8287;51.644;8.494;2023-08-30T09:11:52;4.82;;;3.88;;
16354;SDS011;8287;51.644;8.494;2023-08-30T09:14:19;6.05;;;3.50;;
16354;SDS011;8287;51.644;8.494;2023-08-30T09:16:54;7.53;;;3.90;;
16354;SDS011;8287;51.644;8.494;2023-08-30T09:19:20;4.28;;;2.83;;
16354;SDS011;8287;51.644;8.494;2023-08-30T09:21:51;4.30;;;3.08;;
16354;SDS011;8287;51.644;8.494;2023-08-30T09:24:18;7.03;;;4.78;;
16354;SDS011;8287;51.644;8.494;2023-08-30T09:26:47;4.80;;;3.47;;
16354;SDS011;8287;51.644;8.494;2023-08-30T09:29:16;3.05;;;2.75;;
16354;SDS011;8287;51.644;8.494;2023-08-30T09:31:43;2.75;;;2.38;;
16354;SDS011;8287;51.644;8.494;2023-08-30T09:34:10;3.47;;;2.75;;
16354;SDS011;8287;51.644;8.494;2023-08-30T09:36:37;3.45;;;3.00;;
16354;SDS011;8287;51.644;8.494;2023-08-30T09:39:05;3.78;;;2.75;;
16354;SDS011;8287;51.644;8.494;2023-08-30T09:41:33;3.65;;;2.67;;
16354;SDS011;8287;51.644;8.494;2023-08-30T09:43:59;4.15;;;3.15;;
16354;SDS011;8287;51.644;8.494;2023-08-30T09:46:28;5.75;;;2.70;;
16354;SDS011;8287;51.644;8.494;2023-08-30T09:48:54;2.90;;;2.47;;
16354;SDS011;8287;51.644;8.494;2023-08-30T09:51:21;3.38;;;2.88;;
16354;SDS011;8287;51.644;8.494;2023-08-30T09:53:52;3.90;;;2.60;;
16354;SDS011;8287;51.644;8.494;2023-08-30T09:56:24;6.15;;;2.85;;
16354;SDS011;8287;51.644;8.494;2023-08-30T09:58:52;7.90;;;3.05;;
16354;SDS011;8287;51.644;8.494;2023-08-30T10:01:19;4.57;;;2.85;;
16354;SDS011;8287;51.644;8.494;2023-08-30T10:03:48;3.67;;;2.55;;
16354;SDS011;8287;51.644;8.494;2023-08-30T10:06:15;3.05;;;2.55;;
16354;SDS011;8287;51.644;8.494;2023-08-30T10:08:42;4.70;;;3.60;;
16354;SDS011;8287;51.644;8.494;2023-08-30T10:11:10;4.95;;;2.60;;
16354;SDS011;8287;51.644;8.494;2023-08-30T10:13:38;4.90;;;2.92;;
16354;SDS011;8287;51.644;8.494;2023-08-30T10:16:08;3.97;;;2.83;;
16354;SDS011;8287;51.644;8.494;2023-08-30T10:18:40;5.90;;;2.70;;
16354;SDS011;8287;51.644;8.494;2023-08-30T10:21:11;6.18;;;2.67;;
16354;SDS011;8287;51.644;8.494;2023-08-30T10:23:39;3.90;;;3.00;;
16354;SDS011;8287;51.644;8.494;2023-08-30T10:26:06;3.00;;;2.70;;
16354;SDS011;8287;51.644;8.494;2023-08-30T10:28:34;3.78;;;2.72;;
16354;SDS011;8287;51.644;8.494;2023-08-30T10:31:02;2.92;;;2.60;;
16354;SDS011;8287;51.644;8.494;2023-08-30T10:33:29;4.15;;;2.83;;
16354;SDS011;8287;51.644;8.494;2023-08-30T10:36:02;3.65;;;2.97;;
16354;SDS011;8287;51.644;8.494;2023-08-30T10:38:32;4.47;;;2.92;;
16354;SDS011;8287;51.644;8.494;2023-08-30T10:41:06;6.22;;;2.90;;
16354;SDS011;8287;51.644;8.494;2023-08-30T10:43:33;4.00;;;2.67;;
16354;SDS011;8287;51.644;8.494;2023-08-30T10:46:03;5.20;;;2.88;;
16354;SDS011;8287;51.644;8.494;2023-08-30T10:48:35;3.47;;;2.60;;
16354;SDS011;8287;51.644;8.494;2023-08-30T10:51:03;4.00;;;2.67;;
16354;SDS011;8287;51.644;8.494;2023-08-30T10:53:33;3.25;;;2.78;;
16354;SDS011;8287;51.644;8.494;2023-08-30T10:56:03;3.78;;;3.33;;
16354;SDS011;8287;51.644;8.494;2023-08-30T10:58:42;4.30;;;2.70;;
16354;SDS011;8287;51.644;8.494;2023-08-30T11:04:03;3.47;;;2.92;;
16354;SDS011;8287;51.644;8.494;2023-08-30T11:06:58;3.72;;;2.95;;
16354;SDS011;8287;51.644;8.494;2023-08-30T11:13:20;4.88;;;3.17;;
16354;SDS011;8287;51.644;8.494;2023-08-30T11:16:02;4.05;;;2.95;;
16354;SDS011;8287;51.644;8.494;2023-08-30T11:22:14;3.75;;;3.25;;
16354;SDS011;8287;51.644;8.494;2023-08-30T11:32:12;4.60;;;2.78;;
16354;SDS011;8287;51.644;8.494;2023-08-30T11:37:41;4.55;;;2.25;;
16354;SDS011;8287;51.644;8.494;2023-08-30T11:43:10;4.75;;;2.45;;
16354;SDS011;8287;51.644;8.494;2023-08-30T11:46:03;3.75;;;2.72;;
16354;SDS011;8287;51.644;8.494;2023-08-30T11:49:22;10.70;;;3.63;;
16354;SDS011;8287;51.644;8.494;2023-08-30T11:52:11;4.03;;;2.47;;
16354;SDS011;8287;51.644;8.494;2023-08-30T11:54:39;7.05;;;2.92;;
16354;SDS011;8287;51.644;8.494;2023-08-30T11:57:06;3.47;;;2.67;;
16354;SDS011;8287;51.644;8.494;2023-08-30T11:59:42;3.50;;;2.92;;
16354;SDS011;8287;51.644;8.494;2023-08-30T12:02:31;3.15;;;2.40;;
16354;SDS011;8287;51.644;8.494;2023-08-30T12:05:03;3.20;;;2.15;;
16354;SDS011;8287;51.644;8.494;2023-08-30T12:07:49;3.17;;;2.88;;
16354;SDS011;8287;51.644;8.494;2023-08-30T12:10:17;3.25;;;2.53;;
16354;SDS011;8287;51.644;8.494;2023-08-30T12:12:49;3.50;;;2.45;;
16354;SDS011;8287;51.644;8.494;2023-08-30T12:15:17;4.75;;;2.13;;
16354;SDS011;8287;51.644;8.494;2023-08-30T12:21:03;5.15;;;2.60;;
16354;SDS011;8287;51.644;8.494;2023-08-30T12:24:05;2.70;;;2.38;;
16354;SDS011;8287;51.644;8.494;2023-08-30T12:26:57;4.15;;;2.42;;
16354;SDS011;8287;51.644;8.494;2023-08-30T12:29:50;2.63;;;2.42;;
16354;SDS011;8287;51.644;8.494;2023-08-30T12:32:21;2.60;;;2.10;;
16354;SDS011;8287;51.644;8.494;2023-08-30T12:34:49;3.63;;;2.40;;
16354;SDS011;8287;51.644;8.494;2023-08-30T12:37:16;2.20;;;1.85;;
16354;SDS011;8287;51.644;8.494;2023-08-30T12:39:43;3.35;;;2.47;;
16354;SDS011;8287;51.644;8.494;2023-08-30T12:42:09;2.75;;;2.28;;
16354;SDS011;8287;51.644;8.494;2023-08-30T12:44:36;4.90;;;2.25;;
16354;SDS011;8287;51.644;8.494;2023-08-30T12:47:03;2.55;;;2.35;;
16354;SDS011;8287;51.644;8.494;2023-08-30T12:49:30;3.47;;;2.67;;
16354;SDS011;8287;51.644;8.494;2023-08-30T12:51:58;3.17;;;2.70;;
16354;SDS011;8287;51.644;8.494;2023-08-30T12:54:24;5.75;;;2.25;;
16354;SDS011;8287;51.644;8.494;2023-08-30T12:56:51;4.82;;;3.67;;
16354;SDS011;8287;51.644;8.494;2023-08-30T12:59:18;4.88;;;3.40;;
16354;SDS011;8287;51.644;8.494;2023-08-30T13:01:44;5.03;;;4.32;;
16354;SDS011;8287;51.644;8.494;2023-08-30T13:04:11;6.75;;;3.72;;
16354;SDS011;8287;51.644;8.494;2023-08-30T13:06:37;5.20;;;4.20;;
16354;SDS011;8287;51.644;8.494;2023-08-30T13:09:05;7.90;;;4.57;;
16354;SDS011;8287;51.644;8.494;2023-08-30T13:11:32;5.47;;;4.60;;
16354;SDS011;8287;51.644;8.494;2023-08-30T13:13:58;5.75;;;4.65;;
16354;SDS011;8287;51.644;8.494;2023-08-30T13:16:25;5.50;;;4.75;;
16354;SDS011;8287;51.644;8.494;2023-08-30T13:18:51;4.82;;;4.18;;
16354;SDS011;8287;51.644;8.494;2023-08-30T13:21:18;7.63;;;5.35;;
16354;SDS011;8287;51.644;8.494;2023-08-30T13:23:44;7.20;;;5.43;;
16354;SDS011;8287;51.644;8.494;2023-08-30T13:26:12;6.00;;;5.10;;
16354;SDS011;8287;51.644;8.494;2023-08-30T13:28:39;9.60;;;5.47;;
16354;SDS011;8287;51.644;8.494;2023-08-30T13:31:06;5.68;;;4.97;;
16354;SDS011;8287;51.644;8.494;2023-08-30T13:33:33;6.35;;;5.32;;
16354;SDS011;8287;51.644;8.494;2023-08-30T13:35:59;5.63;;;5.13;;
16354;SDS011;8287;51.644;8.494;2023-08-30T13:38:27;6.20;;;5.60;;
16354;SDS011;8287;51.644;8.494;2023-08-30T13:40:57;6.47;;;5.88;;
16354;SDS011;8287;51.644;8.494;2023-08-30T13:43:26;6.85;;;5.15;;
16354;SDS011;8287;51.644;8.494;2023-08-30T13:45:56;6.70;;;5.10;;
16354;SDS011;8287;51.644;8.494;2023-08-30T13:48:23;6.63;;;5.68;;
16354;SDS011;8287;51.644;8.494;2023-08-30T13:50:50;5.35;;;4.85;;
16354;SDS011;8287;51.644;8.494;2023-08-30T13:53:17;8.07;;;5.45;;
16354;SDS011;8287;51.644;8.494;2023-08-30T13:55:45;7.68;;;6.88;;
16354;SDS011;8287;51.644;8.494;2023-08-30T13:58:14;7.03;;;6.32;;
16354;SDS011;8287;51.644;8.494;2023-08-30T14:00:43;9.52;;;7.10;;
16354;SDS011;8287;51.644;8.494;2023-08-30T14:03:10;9.05;;;6.80;;
16354;SDS011;8287;51.644;8.494;2023-08-30T14:05:37;6.68;;;5.97;;
16354;SDS011;8287;51.644;8.494;2023-08-30T14:08:05;6.22;;;5.72;;
16354;SDS011;8287;51.644;8.494;2023-08-30T14:10:32;6.95;;;5.85;;
16354;SDS011;8287;51.644;8.494;2023-08-30T14:12:59;8.50;;;6.45;;
16354;SDS011;8287;51.644;8.494;2023-08-30T14:15:26;10.32;;;6.82;;
16354;SDS011;8287;51.644;8.494;2023-08-30T14:17:53;6.88;;;6.22;;
16354;SDS011;8287;51.644;8.494;2023-08-30T14:20:20;6.35;;;5.70;;
16354;SDS011;8287;51.644;8.494;2023-08-30T14:22:47;6.40;;;5.70;;
16354;SDS011;8287;51.644;8.494;2023-08-30T14:25:13;5.68;;;5.10;;
16354;SDS011;8287;51.644;8.494;2023-08-30T14:27:40;6.57;;;5.88;;
16354;SDS011;8287;51.644;8.494;2023-08-30T14:30:07;6.82;;;5.43;;
16354;SDS011;8287;51.644;8.494;2023-08-30T14:32:34;6.88;;;6.10;;
16354;SDS011;8287;51.644;8.494;2023-08-30T14:35:04;7.60;;;6.53;;
16354;SDS011;8287;51.644;8.494;2023-08-30T14:37:30;6.65;;;5.95;;
16354;SDS011;8287;51.644;8.494;2023-08-30T14:39:59;7.05;;;6.40;;
16354;SDS011;8287;51.644;8.494;2023-08-30T14:42:26;7.60;;;6.30;;
16354;SDS011;8287;51.644;8.494;2023-08-30T14:44:52;9.93;;;7.15;;
16354;SDS011;8287;51.644;8.494;2023-08-30T14:47:19;8.35;;;6.47;;
16354;SDS011;8287;51.644;8.494;2023-08-30T14:49:46;7.35;;;6.43;;
16354;SDS011;8287;51.644;8.494;2023-08-30T14:52:14;7.78;;;6.72;;
16354;SDS011;8287;51.644;8.494;2023-08-30T14:54:41;8.55;;;6.75;;
16354;SDS011;8287;51.644;8.494;2023-08-30T14:57:08;8.75;;;6.80;;
16354;SDS011;8287;51.644;8.494;2023-08-30T14:59:35;7.65;;;6.78;;
16354;SDS011;8287;51.644;8.494;2023-08-30T15:02:01;8.43;;;7.20;;
16354;SDS011;8287;51.644;8.494;2023-08-30T15:04:28;6.50;;;5.93;;
16354;SDS011;8287;51.644;8.494;2023-08-30T15:06:55;8.18;;;6.60;;
16354;SDS011;8287;51.644;8.494;2023-08-30T15:09:23;7.30;;;6.60;;
16354;SDS011;8287;51.644;8.494;2023-08-30T15:11:49;7.60;;;6.28;;
16354;SDS011;8287;51.644;8.494;2023-08-30T15:14:16;6.43;;;5.60;;
16354;SDS011;8287;51.644;8.494;2023-08-30T15:16:42;5.80;;;5.20;;
16354;SDS011;8287;51.644;8.494;2023-08-30T15:19:09;6.40;;;5.55;;
16354;SDS011;8287;51.644;8.494;2023-08-30T15:21:35;5.97;;;5.38;;
16354;SDS011;8287;51.644;8.494;2023-08-30T15:24:02;5.00;;;4.60;;
16354;SDS011;8287;51.644;8.494;2023-08-30T15:26:31;5.22;;;4.65;;
16354;SDS011;8287;51.644;8.494;2023-08-30T15:28:58;4.57;;;4.18;;
16354;SDS011;8287;51.644;8.494;2023-08-30T15:31:24;4.22;;;3.78;;